Time;durP1;ratioP1;P1;durP2;ratioP2;P2;SDS_P1;SDS_P2;PMS_P1;PMS_P2;Temp;Humidity;BMP_temperature;BMP_pressure;BME280_temperature;BME280_humidity;BME280_pressure;Samples;Min_cycle;Max_cycle;Signal;HPM_P1;HPM_P2
2022/06/10 00:01:57;;;;;;;3.00;2.17;;;18.10;99.90;;;;;;5068292;28;20479;-36
2022/06/10 00:04:24;;;;;;;6.10;2.43;;;18.10;99.90;;;;;;5072770;28;20505;-36
2022/06/10 00:06:51;;;;;;;3.30;3.00;;;18.10;99.90;;;;;;5072759;28;20467;-36
2022/06/10 00:09:18;;;;;;;4.07;2.63;;;18.10;99.90;;;;;;5073351;28;20998;-36
2022/06/10 00:11:45;;;;;;;6.87;3.40;;;18.10;99.90;;;;;;5072978;28;20491;-38
2022/06/10 00:14:12;;;;;;;4.03;2.63;;;18.10;99.90;;;;;;5073609;28;20436;-35
2022/06/10 00:16:40;;;;;;;3.63;3.00;;;18.10;99.90;;;;;;5073510;28;20507;-36
2022/06/10 00:19:07;;;;;;;5.27;3.03;;;18.10;99.90;;;;;;5073851;28;20456;-37
2022/06/10 00:21:33;;;;;;;3.70;2.70;;;18.00;99.90;;;;;;5072572;28;20581;-36
2022/06/10 00:24:00;;;;;;;5.37;3.23;;;18.00;99.90;;;;;;5073290;28;20456;-35
2022/06/10 00:26:27;;;;;;;6.90;3.10;;;18.00;99.90;;;;;;5074166;28;20444;-36
2022/06/10 00:28:54;;;;;;;5.07;3.13;;;18.00;99.90;;;;;;5074456;28;20463;-32
2022/06/10 00:31:21;;;;;;;4.47;2.77;;;17.90;99.90;;;;;;5073839;28;20881;-37
2022/06/10 00:33:49;;;;;;;7.07;3.73;;;17.90;99.90;;;;;;5067671;28;20530;-37
2022/06/10 00:36:16;;;;;;;4.50;3.20;;;17.90;99.90;;;;;;5064003;28;20459;-38
2022/06/10 00:38:43;;;;;;;6.13;3.17;;;17.90;99.90;;;;;;5072772;28;20451;-34
2022/06/10 00:41:10;;;;;;;11.17;3.20;;;17.90;99.90;;;;;;5072716;28;20486;-38
2022/06/10 00:43:37;;;;;;;5.60;3.70;;;17.80;99.90;;;;;;5074341;28;20490;-34
2022/06/10 00:46:15;;;;;;;5.93;3.20;;;17.80;99.90;;;;;;5077266;28;20467;-35
2022/06/10 00:48:58;;;;;;;4.97;3.17;;;17.70;99.90;;;;;;5066013;28;20419;-37
2022/06/10 00:51:32;;;;;;;6.47;3.20;;;17.70;99.90;;;;;;5066153;28;20782;-38
2022/06/10 00:54:04;;;;;;;3.43;2.93;;;17.60;99.90;;;;;;5069592;28;20471;-36
2022/06/10 00:56:32;;;;;;;4.23;3.13;;;17.60;99.90;;;;;;5076403;28;20447;-37
2022/06/10 00:59:04;;;;;;;6.03;3.50;;;17.60;99.90;;;;;;5076489;28;20526;-37
2022/06/10 01:01:33;;;;;;;3.77;2.93;;;17.60;99.90;;;;;;5076201;28;20471;-37
2022/06/10 01:04:02;;;;;;;5.20;2.97;;;17.60;99.90;;;;;;5062210;28;20455;-37
2022/06/10 01:06:29;;;;;;;4.40;3.20;;;17.50;99.90;;;;;;5076804;28;20519;-38
2022/06/10 01:08:59;;;;;;;4.20;3.50;;;17.50;99.90;;;;;;5077019;28;20444;-37
2022/06/10 01:12:07;;;;;;;6.03;3.50;;;17.50;99.90;;;;;;5076633;28;20435;-34
2022/06/10 01:14:48;;;;;;;3.00;2.67;;;17.50;99.90;;;;;;5076502;28;20551;-36
2022/06/10 01:17:31;;;;;;;6.60;3.33;;;17.40;99.90;;;;;;5076470;28;20531;-34
2022/06/10 01:20:18;;;;;;;3.87;2.93;;;17.30;99.90;;;;;;5076465;28;20479;-34
2022/06/10 01:23:32;;;;;;;4.20;2.90;;;17.30;99.90;;;;;;5076814;28;20423;-35
2022/06/10 01:29:56;;;;;;;4.60;3.90;;;17.20;99.90;;;;;;5075053;28;20454;-36
2022/06/10 01:32:32;;;;;;;6.57;3.30;;;17.10;99.90;;;;;;5076499;28;20499;-35
2022/06/10 01:35:18;;;;;;;5.43;3.43;;;17.10;99.90;;;;;;5076487;28;20454;-36
2022/06/10 01:37:56;;;;;;;4.97;3.00;;;17.00;99.90;;;;;;5076624;28;20424;-35
2022/06/10 01:40:36;;;;;;;4.13;3.40;;;17.00;99.90;;;;;;5076068;28;20507;-35
2022/06/10 01:43:10;;;;;;;4.73;2.87;;;17.00;99.90;;;;;;5076441;28;20487;-35
2022/06/10 01:45:42;;;;;;;6.20;3.37;;;17.00;99.90;;;;;;5060636;28;20448;-35
2022/06/10 01:48:17;;;;;;;3.20;2.63;;;16.90;99.90;;;;;;5075916;28;20506;-36
2022/06/10 01:50:50;;;;;;;6.73;2.70;;;16.90;99.90;;;;;;5076001;28;20504;-36
2022/06/10 01:53:26;;;;;;;4.30;3.10;;;16.80;99.90;;;;;;5076064;28;20432;-38
2022/06/10 01:55:58;;;;;;;2.70;2.43;;;16.80;99.90;;;;;;5075141;28;20447;-38
2022/06/10 01:58:30;;;;;;;5.73;2.60;;;16.80;99.90;;;;;;5074857;28;20440;-37
2022/06/10 02:01:03;;;;;;;4.43;2.87;;;16.70;99.90;;;;;;5069230;28;20537;-36
2022/06/10 02:03:35;;;;;;;4.80;2.77;;;16.70;99.90;;;;;;5063537;28;20457;-37
2022/06/10 02:06:07;;;;;;;4.30;2.70;;;16.70;99.90;;;;;;5066383;28;20475;-36
2022/06/10 02:08:38;;;;;;;2.50;2.10;;;16.70;99.90;;;;;;5075637;28;20432;-37
2022/06/10 02:11:08;;;;;;;5.87;2.50;;;16.60;99.90;;;;;;5073075;28;20447;-41
2022/06/10 02:13:42;;;;;;;6.50;2.83;;;16.60;99.90;;;;;;5068431;28;20446;-35
2022/06/10 02:16:13;;;;;;;6.53;3.57;;;16.60;99.90;;;;;;5063036;28;20441;-39
2022/06/10 02:18:46;;;;;;;3.20;2.70;;;16.60;99.90;;;;;;5065751;28;20507;-36
2022/06/10 02:21:17;;;;;;;2.90;2.30;;;16.50;99.90;;;;;;5069603;28;20495;-33
2022/06/10 02:23:49;;;;;;;5.87;3.07;;;16.50;99.90;;;;;;5075291;28;20443;-38
2022/06/10 02:26:17;;;;;;;3.40;2.50;;;16.50;99.90;;;;;;5075488;28;20450;-34
2022/06/10 02:28:49;;;;;;;4.60;3.20;;;16.50;99.90;;;;;;5074415;28;20400;-36
2022/06/10 02:31:19;;;;;;;5.50;2.20;;;16.40;99.90;;;;;;5063692;28;20467;-36
2022/06/10 02:33:49;;;;;;;3.50;2.40;;;16.40;99.90;;;;;;5074690;28;20495;-34
2022/06/10 02:36:20;;;;;;;3.90;2.77;;;16.40;99.90;;;;;;5075127;28;20550;-36
2022/06/10 02:38:55;;;;;;;2.80;2.60;;;16.30;99.90;;;;;;5075218;28;20487;-37
2022/06/10 02:41:32;;;;;;;2.87;2.67;;;16.30;99.90;;;;;;5075388;28;20462;-36
2022/06/10 02:44:05;;;;;;;3.93;2.90;;;16.30;99.90;;;;;;5075446;28;20431;-34
2022/06/10 02:46:37;;;;;;;3.23;2.93;;;16.20;99.90;;;;;;5075393;28;20457;-32
2022/06/10 02:49:09;;;;;;;6.40;2.97;;;16.20;99.90;;;;;;5074984;28;20519;-40
2022/06/10 02:51:38;;;;;;;3.17;2.87;;;16.20;99.90;;;;;;5075009;28;20467;-34
2022/06/10 02:54:08;;;;;;;4.10;2.87;;;16.10;99.90;;;;;;5073641;28;20532;-36
2022/06/10 02:56:34;;;;;;;6.90;2.80;;;16.10;99.90;;;;;;5069080;28;20452;-37
2022/06/10 03:02:09;;;;;;;3.10;2.80;;;16.00;99.90;;;;;;5045256;28;20462;-35
2022/06/10 03:04:48;;;;;;;6.60;3.47;;;16.00;99.90;;;;;;5044896;28;20546;-37
2022/06/10 03:07:32;;;;;;;3.40;2.73;;;16.00;99.90;;;;;;5041855;28;20503;-36
2022/06/10 03:10:12;;;;;;;3.80;3.10;;;15.90;99.90;;;;;;5054657;28;20432;-38
2022/06/10 03:12:44;;;;;;;3.53;2.70;;;15.90;99.90;;;;;;5049070;28;20512;-37
2022/06/10 03:15:21;;;;;;;7.53;3.10;;;15.80;99.90;;;;;;5047413;28;20471;-32
2022/06/10 03:17:58;;;;;;;3.50;3.20;;;15.80;99.90;;;;;;5053595;28;20500;-41
2022/06/10 03:20:38;;;;;;;3.20;2.90;;;15.80;99.90;;;;;;5053186;28;20474;-38
2022/06/10 03:23:15;;;;;;;4.03;2.97;;;15.80;99.90;;;;;;5054337;28;20519;-40
2022/06/10 03:25:46;;;;;;;3.90;2.87;;;15.80;99.90;;;;;;5053888;28;20468;-34
2022/06/10 03:28:19;;;;;;;3.40;3.10;;;15.80;99.90;;;;;;5053362;28;20448;-37
2022/06/10 03:30:53;;;;;;;5.70;3.07;;;15.70;99.90;;;;;;5054291;28;20429;-38
2022/06/10 03:33:26;;;;;;;8.47;3.33;;;15.80;99.90;;;;;;5053777;28;20440;-37
2022/06/10 03:36:02;;;;;;;2.73;2.30;;;15.70;99.90;;;;;;5054066;28;20487;-36
2022/06/10 03:38:31;;;;;;;4.20;3.00;;;15.70;99.90;;;;;;5054099;28;20459;-37
2022/06/10 03:41:01;;;;;;;8.10;2.60;;;15.70;99.90;;;;;;5054103;28;20490;-37
2022/06/10 03:43:32;;;;;;;9.40;3.53;;;15.70;99.90;;;;;;5054020;28;20444;-37
2022/06/10 03:46:02;;;;;;;4.23;3.33;;;15.70;99.90;;;;;;5048623;28;20448;-38
2022/06/10 03:48:33;;;;;;;4.53;3.20;;;15.80;99.90;;;;;;5045450;28;20448;-36
2022/06/10 03:51:02;;;;;;;3.53;2.93;;;15.80;99.90;;;;;;5053665;28;20462;-37
2022/06/10 03:53:28;;;;;;;3.90;3.20;;;15.80;99.90;;;;;;5052995;28;20460;-39
2022/06/10 03:55:55;;;;;;;4.30;3.47;;;15.80;99.90;;;;;;5052377;28;20848;-39
2022/06/10 03:58:22;;;;;;;4.93;3.07;;;15.80;99.90;;;;;;5052444;28;20458;-37
2022/06/10 04:00:49;;;;;;;7.93;3.50;;;15.80;99.90;;;;;;5052645;28;20444;-36
2022/06/10 04:03:16;;;;;;;4.33;3.40;;;15.80;99.90;;;;;;5052947;28;20556;-35
2022/06/10 04:05:44;;;;;;;2.63;2.43;;;15.80;99.90;;;;;;5053231;28;20452;-35
2022/06/10 04:08:13;;;;;;;3.40;2.87;;;15.90;99.90;;;;;;5053277;28;20502;-36
2022/06/10 04:10:40;;;;;;;2.70;2.47;;;15.90;99.90;;;;;;5053424;28;20508;-37
2022/06/10 04:13:07;;;;;;;3.80;2.57;;;15.90;99.90;;;;;;5053926;28;20479;-34
2022/06/10 04:15:34;;;;;;;3.77;2.80;;;15.90;99.90;;;;;;5053864;28;20449;-36
2022/06/10 04:18:01;;;;;;;3.43;3.13;;;15.90;99.90;;;;;;5053624;28;20444;-37
2022/06/10 04:20:31;;;;;;;2.90;2.17;;;15.90;99.90;;;;;;5057616;28;20620;-36
2022/06/10 04:22:58;;;;;;;3.10;2.80;;;15.90;99.90;;;;;;5057621;28;20479;-36
2022/06/10 04:25:26;;;;;;;5.80;3.17;;;16.00;99.90;;;;;;5056902;28;20464;-35
2022/06/10 04:27:53;;;;;;;6.20;2.50;;;16.00;99.90;;;;;;5056619;28;20475;-43
2022/06/10 04:30:25;;;;;;;4.30;2.87;;;16.00;99.90;;;;;;5056990;28;20507;-38
2022/06/10 04:32:52;;;;;;;4.73;3.30;;;16.10;99.90;;;;;;5056879;28;20456;-33
2022/06/10 04:35:20;;;;;;;5.20;3.80;;;16.10;99.90;;;;;;5057098;28;20454;-36
2022/06/10 04:37:49;;;;;;;3.20;2.90;;;16.20;99.90;;;;;;5057427;28;20464;-36
2022/06/10 04:40:17;;;;;;;9.40;3.50;;;16.20;99.90;;;;;;5057338;28;20480;-39
2022/06/10 04:42:48;;;;;;;4.10;3.00;;;16.30;99.90;;;;;;5056467;28;20490;-39
2022/06/10 04:45:18;;;;;;;8.50;4.30;;;16.30;99.90;;;;;;5057350;28;20464;-38
2022/06/10 04:47:54;;;;;;;4.20;3.70;;;16.30;99.90;;;;;;5056240;28;20464;-39
2022/06/10 04:50:25;;;;;;;3.70;3.00;;;16.30;99.90;;;;;;5056356;28;20463;-38
2022/06/10 04:52:52;;;;;;;6.37;3.57;;;16.30;99.90;;;;;;5056410;28;20432;-37
2022/06/10 04:55:23;;;;;;;10.20;3.87;;;16.40;99.90;;;;;;5056746;28;20531;-36
2022/06/10 04:57:54;;;;;;;11.20;3.23;;;16.40;99.90;;;;;;5057275;28;20436;-37
2022/06/10 05:00:24;;;;;;;4.13;3.43;;;16.50;99.90;;;;;;5056907;28;20424;-38
2022/06/10 05:02:50;;;;;;;4.17;3.40;;;16.50;99.90;;;;;;5056595;28;20498;-36
2022/06/10 05:05:17;;;;;;;3.93;3.53;;;16.60;99.90;;;;;;5056076;28;20512;-35
2022/06/10 05:07:44;;;;;;;4.03;3.17;;;16.60;99.90;;;;;;5056387;28;21023;-37
2022/06/10 05:10:13;;;;;;;6.23;3.10;;;16.50;99.90;;;;;;5055428;28;20475;-37
2022/06/10 05:12:44;;;;;;;6.60;3.30;;;16.50;99.90;;;;;;5056661;28;20498;-41
2022/06/10 05:15:13;;;;;;;7.33;2.97;;;16.50;99.90;;;;;;5041190;28;20995;-37
2022/06/10 05:17:41;;;;;;;6.60;3.10;;;16.60;99.90;;;;;;5056332;28;20448;-36
2022/06/10 05:20:10;;;;;;;3.80;2.57;;;16.70;99.90;;;;;;5056296;28;20484;-39
2022/06/10 05:22:37;;;;;;;3.20;2.90;;;16.60;99.90;;;;;;5056311;28;20468;-37
2022/06/10 05:25:04;;;;;;;9.70;2.63;;;16.60;99.90;;;;;;5056345;28;20492;-35
2022/06/10 05:27:31;;;;;;;3.00;2.70;;;16.60;99.90;;;;;;5056524;28;20954;-40
2022/06/10 05:29:58;;;;;;;5.53;2.70;;;16.60;99.90;;;;;;5055216;28;20520;-33
2022/06/10 05:32:28;;;;;;;3.37;2.27;;;16.70;99.90;;;;;;5056334;28;20475;-37
2022/06/10 05:34:54;;;;;;;6.83;2.40;;;16.80;99.90;;;;;;5056030;28;20451;-36
2022/06/10 05:37:27;;;;;;;4.77;2.40;;;16.90;99.90;;;;;;5055744;28;20440;-41
2022/06/10 05:39:55;;;;;;;3.50;2.30;;;17.00;99.90;;;;;;5055740;28;20460;-39
2022/06/10 05:42:22;;;;;;;5.67;2.30;;;17.10;99.90;;;;;;5067203;28;20545;-37
2022/06/10 05:44:53;;;;;;;5.07;2.43;;;17.10;99.90;;;;;;5069177;28;20498;-37
2022/06/10 05:47:23;;;;;;;3.40;2.33;;;17.10;99.90;;;;;;5065682;28;20439;-38
2022/06/10 05:49:57;;;;;;;3.93;2.13;;;17.10;99.90;;;;;;5071151;28;20439;-37
2022/06/10 05:52:26;;;;;;;4.83;2.30;;;17.10;99.90;;;;;;5077405;28;20482;-37
2022/06/10 05:54:58;;;;;;;4.47;2.00;;;17.10;99.90;;;;;;5087781;28;20436;-37
2022/06/10 05:57:25;;;;;;;4.33;2.50;;;17.10;99.90;;;;;;5085252;28;20497;-36
2022/06/10 05:59:52;;;;;;;5.10;2.20;;;17.10;99.90;;;;;;5078019;28;20486;-37
2022/06/10 06:02:21;;;;;;;5.80;2.10;;;17.20;99.90;;;;;;5089126;28;20512;-36
2022/06/10 06:04:48;;;;;;;2.60;2.00;;;17.30;99.90;;;;;;5080812;28;20462;-35
2022/06/10 06:07:19;;;;;;;1.70;1.60;;;17.30;99.90;;;;;;5072479;28;20466;-38
2022/06/10 06:09:46;;;;;;;2.73;1.33;;;17.30;99.90;;;;;;5073166;28;20535;-43
2022/06/10 06:12:13;;;;;;;1.90;1.70;;;17.30;99.90;;;;;;5067977;28;20443;-36
2022/06/10 06:14:40;;;;;;;7.43;1.70;;;17.40;99.90;;;;;;5072091;28;20479;-38
2022/06/10 06:17:07;;;;;;;2.17;1.50;;;17.40;99.90;;;;;;5068272;28;20479;-41
2022/06/10 06:19:35;;;;;;;2.33;2.13;;;17.40;99.90;;;;;;5067505;28;20474;-38
2022/06/10 06:22:02;;;;;;;2.53;1.60;;;17.40;99.90;;;;;;5069840;28;20485;-39
2022/06/10 06:24:31;;;;;;;3.93;1.80;;;17.40;99.90;;;;;;5068571;28;20529;-38
2022/06/10 06:26:58;;;;;;;2.30;1.57;;;17.50;99.90;;;;;;5073638;28;20486;-35
2022/06/10 06:29:25;;;;;;;2.47;1.93;;;17.50;99.90;;;;;;5067402;28;20447;-37
2022/06/10 06:31:53;;;;;;;3.03;1.67;;;17.60;99.90;;;;;;5069125;28;20467;-38
2022/06/10 06:34:20;;;;;;;5.20;1.77;;;17.70;99.90;;;;;;5062372;28;20515;-37
2022/06/10 06:36:49;;;;;;;2.13;1.80;;;17.70;99.90;;;;;;5062849;28;20435;-38
2022/06/10 06:39:18;;;;;;;2.20;1.73;;;17.70;99.90;;;;;;5064768;28;20462;-43
2022/06/10 06:41:47;;;;;;;4.87;1.80;;;17.80;99.90;;;;;;5069624;28;20448;-38
2022/06/10 06:44:13;;;;;;;3.40;1.77;;;17.90;99.90;;;;;;5065928;28;20542;-36
2022/06/10 06:46:42;;;;;;;4.00;2.03;;;17.90;99.90;;;;;;5061179;28;20451;-38
2022/06/10 06:49:12;;;;;;;4.67;1.73;;;18.00;99.90;;;;;;5065330;28;20529;-37
2022/06/10 06:51:39;;;;;;;3.17;2.00;;;18.10;99.90;;;;;;5071041;28;20462;-38
2022/06/10 06:54:06;;;;;;;4.73;1.93;;;18.20;99.90;;;;;;5073861;28;20467;-38
2022/06/10 06:56:33;;;;;;;2.30;1.57;;;18.20;99.90;;;;;;5072812;28;20435;-37
2022/06/10 06:59:02;;;;;;;2.40;1.73;;;18.30;99.90;;;;;;5074038;28;20835;-37
2022/06/10 07:01:29;;;;;;;3.53;2.20;;;18.40;99.90;;;;;;5074242;28;20463;-37
2022/06/10 07:04:00;;;;;;;2.90;2.00;;;18.50;99.90;;;;;;5072703;28;20471;-37
2022/06/10 07:06:27;;;;;;;2.30;2.10;;;18.60;99.90;;;;;;5069586;28;20471;-38
2022/06/10 07:08:54;;;;;;;6.00;1.80;;;18.70;99.90;;;;;;5072817;28;20457;-35
2022/06/10 07:11:20;;;;;;;7.97;1.97;;;18.80;99.90;;;;;;5073341;28;20495;-35
2022/06/10 07:13:47;;;;;;;2.70;1.50;;;18.90;99.90;;;;;;5065927;28;20503;-39
2022/06/10 07:16:16;;;;;;;2.43;1.70;;;19.30;99.90;;;;;;5073044;28;20470;-35
2022/06/10 07:18:43;;;;;;;2.20;1.20;;;20.00;99.90;;;;;;5067452;28;20415;-37
2022/06/10 07:21:10;;;;;;;4.67;2.27;;;21.40;99.90;;;;;;5064394;28;20459;-33
2022/06/10 07:23:37;;;;;;;3.90;1.80;;;22.80;99.90;;;;;;5072732;28;20487;-42
2022/06/10 07:26:05;;;;;;;4.00;1.70;;;23.90;99.90;;;;;;5062685;28;20478;-38
2022/06/10 07:28:32;;;;;;;5.07;1.83;;;24.70;97.80;;;;;;5069584;28;20565;-39
2022/06/10 07:30:59;;;;;;;3.07;2.77;;;25.70;93.20;;;;;;5071308;28;20474;-37
2022/06/10 07:33:27;;;;;;;3.37;1.80;;;26.30;91.20;;;;;;5064187;28;20459;-37
2022/06/10 07:35:55;;;;;;;6.33;1.87;;;27.40;84.80;;;;;;5069838;28;20447;-40
2022/06/10 07:38:22;;;;;;;4.00;1.70;;;28.30;78.50;;;;;;5065327;28;20453;-41
2022/06/10 07:43:35;;;;;;;3.87;1.83;;;29.30;69.20;;;;;;5064759;28;20505;-39
2022/06/10 07:46:03;;;;;;;4.90;1.70;;;29.60;66.10;;;;;;5072670;28;20450;-36
2022/06/10 07:48:32;;;;;;;4.60;1.80;;;29.90;63.20;;;;;;5073638;28;20447;-38
2022/06/10 07:51:01;;;;;;;3.63;1.50;;;30.20;63.30;;;;;;5074075;28;20473;-36
2022/06/10 07:53:30;;;;;;;5.63;2.03;;;30.70;60.30;;;;;;5073804;28;20435;-38
2022/06/10 07:55:57;;;;;;;3.33;1.70;;;31.10;58.50;;;;;;5074306;28;20475;-37
2022/06/10 07:58:25;;;;;;;3.77;2.00;;;31.60;57.40;;;;;;5070994;28;20476;-38
2022/06/10 08:00:54;;;;;;;3.23;1.80;;;31.40;56.40;;;;;;5071338;28;20511;-39
2022/06/10 08:03:21;;;;;;;2.57;1.83;;;31.50;55.90;;;;;;5060040;28;20477;-39
2022/06/10 08:05:49;;;;;;;3.13;1.80;;;31.80;54.70;;;;;;5061476;28;20443;-39
2022/06/10 08:08:18;;;;;;;4.37;1.97;;;32.00;55.90;;;;;;5064937;28;20544;-41
2022/06/10 08:10:46;;;;;;;2.93;1.73;;;32.40;53.70;;;;;;5062151;28;20478;-41
2022/06/10 08:13:14;;;;;;;3.20;1.87;;;32.50;53.20;;;;;;5062944;28;20487;-38
2022/06/10 08:15:42;;;;;;;4.23;1.43;;;32.70;52.40;;;;;;5065654;28;20865;-40
2022/06/10 08:18:09;;;;;;;4.73;1.77;;;32.80;51.70;;;;;;5060214;28;20471;-39
2022/06/10 08:23:26;;;;;;;3.77;1.90;;;32.40;51.40;;;;;;5071469;28;20458;-37
2022/06/10 08:25:54;;;;;;;3.80;1.80;;;32.00;51.00;;;;;;5065564;28;20431;-37
2022/06/10 08:28:22;;;;;;;4.30;2.00;;;31.70;51.30;;;;;;5064619;28;20451;-34
2022/06/10 08:30:48;;;;;;;3.37;2.00;;;31.60;51.60;;;;;;5071766;28;20426;-44
2022/06/10 08:33:15;;;;;;;2.97;1.77;;;31.60;51.40;;;;;;5055870;28;20458;-37
2022/06/10 08:35:45;;;;;;;4.50;1.80;;;31.50;51.80;;;;;;5072455;28;20543;-41
2022/06/10 08:38:14;;;;;;;4.90;1.80;;;31.70;51.10;;;;;;5064002;28;20748;-37
2022/06/10 08:40:50;;;;;;;3.93;2.47;;;31.60;50.40;;;;;;5064863;28;20475;-37
2022/06/10 08:43:40;;;;;;;3.70;2.03;;;30.50;51.80;;;;;;5063744;28;20530;-34
2022/06/10 08:46:17;;;;;;;4.97;1.90;;;30.50;52.70;;;;;;5067341;28;20475;-37
2022/06/10 08:49:00;;;;;;;3.17;1.80;;;30.80;51.40;;;;;;5062550;28;20411;-37
2022/06/10 08:51:35;;;;;;;5.23;1.80;;;30.90;50.90;;;;;;5069232;28;20464;-38
2022/06/10 08:54:13;;;;;;;2.80;1.87;;;31.20;51.00;;;;;;5067575;28;20414;-40
2022/06/10 08:56:45;;;;;;;4.77;2.20;;;31.80;50.90;;;;;;5068228;28;20454;-39
2022/06/10 08:59:21;;;;;;;4.80;2.13;;;32.10;49.50;;;;;;5060347;28;20462;-39
2022/06/10 09:01:54;;;;;;;3.97;1.80;;;32.00;49.10;;;;;;5082628;28;20441;-37
2022/06/10 09:04:29;;;;;;;6.20;1.50;;;31.60;48.90;;;;;;5073066;28;20511;-36
2022/06/10 09:07:00;;;;;;;7.03;2.30;;;30.70;50.80;;;;;;5075723;28;20427;-37
2022/06/10 09:09:28;;;;;;;6.23;1.97;;;30.60;52.20;;;;;;5075902;28;20471;-37
2022/06/10 09:12:04;;;;;;;4.87;1.93;;;30.50;50.80;;;;;;5075383;28;20553;-36
2022/06/10 09:14:31;;;;;;;3.20;2.10;;;30.20;51.10;;;;;;5075389;28;20491;-35
2022/06/10 09:17:05;;;;;;;4.60;2.00;;;29.20;52.40;;;;;;5070562;28;20490;-40
2022/06/10 09:19:41;;;;;;;2.17;1.87;;;28.80;53.60;;;;;;5075735;28;20416;-41
2022/06/10 09:22:15;;;;;;;4.13;2.10;;;28.70;54.00;;;;;;5075217;28;20458;-36
2022/06/10 09:24:49;;;;;;;1.97;1.47;;;28.70;53.70;;;;;;5076638;28;20889;-37
2022/06/10 09:27:24;;;;;;;4.23;1.67;;;28.50;52.50;;;;;;5076032;28;20482;-37
2022/06/10 09:29:51;;;;;;;3.77;1.63;;;28.40;53.70;;;;;;5076514;28;20462;-37
2022/06/10 09:32:30;;;;;;;3.53;1.60;;;28.90;53.70;;;;;;5076803;28;20463;-41
2022/06/10 09:35:06;;;;;;;3.10;1.87;;;29.20;52.40;;;;;;5075021;28;20483;-38
2022/06/10 09:37:40;;;;;;;3.13;2.40;;;29.70;50.60;;;;;;5073373;28;20442;-39
2022/06/10 09:43:26;;;;;;;3.10;1.70;;;30.10;49.70;;;;;;5095430;28;20469;-35
2022/06/10 09:46:08;;;;;;;6.83;2.10;;;30.20;50.80;;;;;;5095989;28;20426;-39
2022/06/10 09:48:53;;;;;;;2.20;1.50;;;30.60;50.80;;;;;;5095864;28;20477;-38
2022/06/10 09:51:30;;;;;;;3.23;1.60;;;30.90;49.40;;;;;;5095293;28;20460;-40
2022/06/10 09:54:08;;;;;;;3.00;1.90;;;30.90;49.50;;;;;;5095581;28;20425;-37
2022/06/10 09:56:55;;;;;;;4.87;1.83;;;30.90;48.90;;;;;;5095041;28;20431;-39
2022/06/10 09:59:33;;;;;;;2.80;1.70;;;30.60;50.00;;;;;;5094292;28;20549;-37
2022/06/10 10:02:14;;;;;;;2.63;1.97;;;30.50;50.40;;;;;;5096747;28;20501;-40
2022/06/10 10:05:21;;;;;;;3.33;1.80;;;30.70;49.20;;;;;;5096226;28;20599;-37
2022/06/10 10:07:52;;;;;;;3.60;1.93;;;30.50;48.90;;;;;;5093863;28;20446;-38
2022/06/10 10:10:27;;;;;;;1.97;1.60;;;30.60;49.30;;;;;;5095680;28;20464;-37
2022/06/10 10:13:33;;;;;;;3.60;1.60;;;30.80;48.30;;;;;;5097282;28;20411;-36
2022/06/10 10:16:09;;;;;;;2.90;1.87;;;31.00;48.30;;;;;;5089206;28;20459;-39
2022/06/10 10:18:46;;;;;;;3.07;1.60;;;30.50;49.50;;;;;;5095551;28;20407;-39
2022/06/10 10:21:14;;;;;;;3.27;1.67;;;30.30;49.40;;;;;;5094516;28;20418;-44
2022/06/10 10:23:47;;;;;;;3.20;1.73;;;30.10;49.90;;;;;;5094197;28;20513;-39
2022/06/10 10:26:21;;;;;;;3.67;1.33;;;29.80;49.80;;;;;;5093797;28;20459;-35
2022/06/10 10:28:52;;;;;;;3.20;1.50;;;29.60;50.20;;;;;;5068518;28;20475;-35
2022/06/10 10:31:23;;;;;;;6.10;1.83;;;29.30;50.20;;;;;;5093210;28;20443;-39
2022/06/10 10:33:52;;;;;;;2.53;1.80;;;29.00;51.60;;;;;;5094175;28;20423;-39
2022/06/10 10:36:25;;;;;;;2.60;2.17;;;28.80;51.50;;;;;;5092981;28;20422;-39
2022/06/10 10:38:53;;;;;;;5.43;2.00;;;28.80;51.30;;;;;;5094261;28;20439;-39
2022/06/10 10:41:35;;;;;;;3.47;1.67;;;28.70;51.40;;;;;;5080536;28;20980;-39
2022/06/10 10:44:06;;;;;;;5.77;1.60;;;28.40;50.90;;;;;;5073074;28;20497;-34
2022/06/10 10:46:39;;;;;;;3.90;1.60;;;28.10;51.00;;;;;;5074984;28;20443;-38
2022/06/10 10:49:21;;;;;;;2.90;1.60;;;27.80;51.10;;;;;;5074966;28;20446;-38
2022/06/10 10:51:50;;;;;;;3.70;1.87;;;27.80;51.90;;;;;;5086803;28;20465;-37
2022/06/10 10:54:22;;;;;;;3.37;1.70;;;27.60;52.60;;;;;;5095556;28;20473;-40
2022/06/10 10:56:50;;;;;;;4.83;2.00;;;27.70;53.10;;;;;;5095260;28;20414;-35
2022/06/10 10:59:31;;;;;;;5.93;2.03;;;27.70;52.30;;;;;;5076857;28;20446;-34
2022/06/10 11:02:01;;;;;;;4.13;1.70;;;27.50;52.30;;;;;;5073342;28;20436;-34
2022/06/10 11:04:31;;;;;;;2.03;1.53;;;27.30;54.50;;;;;;5068019;28;20542;-37
2022/06/10 11:07:05;;;;;;;6.80;2.03;;;27.30;53.60;;;;;;5074765;28;20534;-34
2022/06/10 11:09:42;;;;;;;5.23;2.00;;;27.40;53.30;;;;;;5072997;28;20440;-36
2022/06/10 11:12:15;;;;;;;2.93;2.00;;;27.40;53.40;;;;;;5090841;28;20466;-38
2022/06/10 11:14:46;;;;;;;3.50;1.60;;;27.50;53.60;;;;;;5093787;28;20418;-37
2022/06/10 11:17:22;;;;;;;4.63;1.80;;;27.30;53.90;;;;;;5080203;28;20431;-36
2022/06/10 11:19:52;;;;;;;5.43;3.50;;;27.20;54.30;;;;;;5072229;28;20458;-34
2022/06/10 11:22:32;;;;;;;5.90;2.40;;;27.20;54.50;;;;;;5071103;28;20463;-33
2022/06/10 11:25:27;;;;;;;3.87;2.20;;;27.10;54.60;;;;;;5084225;28;20489;-38
2022/06/10 11:28:05;;;;;;;1.93;1.50;;;26.90;54.20;;;;;;5092286;28;20468;-38
2022/06/10 11:30:41;;;;;;;7.43;1.93;;;26.60;53.80;;;;;;5094079;28;20466;-37
2022/06/10 11:33:20;;;;;;;2.30;1.70;;;26.60;54.90;;;;;;5094075;28;20481;-39
2022/06/10 11:36:01;;;;;;;4.47;1.70;;;26.70;54.00;;;;;;5092933;28;20958;-35
2022/06/10 11:38:31;;;;;;;5.53;2.37;;;26.70;54.80;;;;;;5085130;28;20497;-37
2022/06/10 11:41:01;;;;;;;4.20;1.93;;;26.80;55.30;;;;;;5094171;28;20438;-36
2022/06/10 11:43:31;;;;;;;3.73;2.23;;;26.90;54.60;;;;;;5093819;28;20458;-35
2022/06/10 11:46:02;;;;;;;5.97;1.77;;;26.90;54.00;;;;;;5094277;28;20446;-39
2022/06/10 11:48:40;;;;;;;3.63;1.87;;;26.90;54.20;;;;;;5091103;28;20419;-38
2022/06/10 11:51:13;;;;;;;7.80;2.13;;;26.90;54.10;;;;;;5093792;28;20473;-39
2022/06/10 11:53:46;;;;;;;4.10;1.70;;;26.90;53.20;;;;;;5094249;28;20498;-35
2022/06/10 12:02:00;;;;;;;2.57;1.67;;;26.00;55.00;;;;;;5094228;28;20422;-37
2022/06/10 12:04:37;;;;;;;2.73;1.50;;;25.90;54.70;;;;;;5074222;28;20490;-38
2022/06/10 12:07:12;;;;;;;4.50;1.50;;;26.00;55.30;;;;;;5074346;28;20459;-38
2022/06/10 12:09:42;;;;;;;2.37;1.33;;;26.10;55.00;;;;;;5074222;28;20471;-34
2022/06/10 12:12:15;;;;;;;6.70;2.63;;;26.20;54.50;;;;;;5074368;28;20475;-36
2022/06/10 12:14:45;;;;;;;5.37;4.27;;;26.10;54.20;;;;;;5074201;28;20492;-37
2022/06/10 12:17:17;;;;;;;3.97;1.60;;;25.80;54.40;;;;;;5073700;28;20522;-38
2022/06/10 12:19:48;;;;;;;3.00;1.70;;;25.80;54.60;;;;;;5071590;28;20551;-38
2022/06/10 12:22:16;;;;;;;6.20;3.87;;;25.70;54.40;;;;;;5074236;28;20438;-36
2022/06/10 12:24:47;;;;;;;5.03;2.17;;;25.70;54.50;;;;;;5074417;28;20498;-35
2022/06/10 12:27:18;;;;;;;3.60;2.33;;;25.70;54.90;;;;;;5073224;28;20522;-35
2022/06/10 12:29:49;;;;;;;4.37;1.70;;;25.80;54.20;;;;;;5074567;28;20490;-37
2022/06/10 12:32:26;;;;;;;2.70;1.80;;;25.80;54.80;;;;;;5073955;28;20476;-35
2022/06/10 12:35:00;;;;;;;3.40;2.00;;;25.90;53.60;;;;;;5074052;28;20494;-37
2022/06/10 12:37:34;;;;;;;6.57;2.13;;;25.90;53.40;;;;;;5074078;28;20459;-38
2022/06/10 12:40:06;;;;;;;3.60;1.67;;;25.90;54.30;;;;;;5075310;28;20458;-33
2022/06/10 12:42:40;;;;;;;2.80;1.60;;;25.80;54.30;;;;;;5073724;28;20438;-40
2022/06/10 12:45:16;;;;;;;3.30;1.50;;;25.80;54.40;;;;;;5069962;28;20493;-39
2022/06/10 12:47:44;;;;;;;2.90;1.50;;;25.90;53.30;;;;;;5072203;28;20453;-35
2022/06/10 12:50:22;;;;;;;2.27;2.07;;;25.90;52.00;;;;;;5074856;28;20459;-40
2022/06/10 12:53:03;;;;;;;3.27;1.50;;;25.80;51.90;;;;;;5063466;28;20464;-37
2022/06/10 12:55:35;;;;;;;2.67;2.00;;;25.70;52.30;;;;;;5076323;28;20499;-38
2022/06/10 12:58:02;;;;;;;2.37;1.60;;;25.90;53.80;;;;;;5076319;28;20415;-38
2022/06/10 13:00:42;;;;;;;4.87;1.60;;;26.00;53.20;;;;;;5076234;28;20443;-37
2022/06/10 13:03:40;;;;;;;1.83;1.43;;;26.00;53.00;;;;;;5075926;28;20446;-34
2022/06/10 13:06:56;;;;;;;2.97;1.73;;;26.00;52.40;;;;;;5075979;28;20481;-36
2022/06/10 13:09:28;;;;;;;4.57;2.10;;;26.00;52.10;;;;;;5076957;28;20443;-37
2022/06/10 13:11:57;;;;;;;1.57;1.47;;;26.10;51.90;;;;;;5076718;28;20460;-36
2022/06/10 13:14:41;;;;;;;4.40;2.10;;;26.00;52.10;;;;;;5075233;28;20582;-36
2022/06/10 13:17:17;;;;;;;2.47;2.27;;;26.00;52.00;;;;;;5075297;28;20447;-37
2022/06/10 13:20:15;;;;;;;4.37;1.80;;;26.00;51.50;;;;;;5079923;28;20498;-34
2022/06/10 13:22:43;;;;;;;4.43;2.27;;;25.90;51.40;;;;;;5096892;28;20430;-37
2022/06/10 13:25:25;;;;;;;2.50;1.60;;;25.90;51.50;;;;;;5096492;28;20516;-36
2022/06/10 13:27:55;;;;;;;3.90;1.20;;;26.00;51.30;;;;;;5096171;28;20458;-39
2022/06/10 13:30:28;;;;;;;4.80;1.80;;;26.00;52.00;;;;;;5095894;28;20435;-35
2022/06/10 13:33:03;;;;;;;2.07;1.50;;;26.20;51.30;;;;;;5095616;28;20489;-40